Time;durP1;ratioP1;P1;durP2;ratioP2;P2;SDS_P1;SDS_P2;PMS_P1;PMS_P2;Temp;Humidity;BMP_temperature;BMP_pressure;BME280_temperature;BME280_humidity;BME280_pressure;Samples;Min_cycle;Max_cycle;Signal;HPM_P1;HPM_P2
2023/08/08 00:01:17;;;;;;;2.90;1.67;;;12.20;99.90;;;11.73;100.00;97386.28;5037181;28;20040;-36
2023/08/08 00:03:42;;;;;;;2.97;1.20;;;12.20;99.90;;;11.89;100.00;97397.06;5037788;28;20497;-36
2023/08/08 00:06:08;;;;;;;2.35;1.25;;;12.30;99.90;;;11.90;100.00;97390.00;5038443;28;20031;-36
2023/08/08 00:08:34;;;;;;;2.90;1.38;;;12.30;99.90;;;12.00;100.00;97396.66;5042187;28;20095;-36
2023/08/08 00:10:59;;;;;;;1.70;1.40;;;12.40;99.90;;;12.03;100.00;97392.09;5040647;28;20045;-36
2023/08/08 00:13:25;;;;;;;2.22;1.25;;;12.40;99.90;;;12.07;100.00;97397.25;5039151;28;20029;-36
2023/08/08 00:15:51;;;;;;;1.80;1.08;;;12.40;99.90;;;12.11;100.00;97396.19;5033816;28;20440;-36
2023/08/08 00:18:16;;;;;;;1.42;1.23;;;12.50;99.90;;;12.14;100.00;97401.34;5039436;28;20029;-36
2023/08/08 00:20:42;;;;;;;1.27;1.15;;;12.60;99.90;;;12.23;100.00;97406.22;5040342;28;20036;-36
2023/08/08 00:23:08;;;;;;;1.27;1.10;;;12.60;99.90;;;12.29;100.00;97402.47;5040500;28;20053;-36
2023/08/08 00:25:33;;;;;;;1.50;1.13;;;12.70;99.90;;;12.34;100.00;97411.91;5039010;28;20033;-36
2023/08/08 00:27:59;;;;;;;2.33;1.00;;;12.70;99.90;;;12.38;100.00;97405.56;5039279;28;20079;-36
2023/08/08 00:30:25;;;;;;;1.88;1.20;;;12.80;99.90;;;12.44;100.00;97403.59;5037289;28;20043;-36
2023/08/08 00:32:51;;;;;;;4.68;1.48;;;12.80;99.90;;;12.45;100.00;97402.66;5035894;28;20468;-37
2023/08/08 00:35:16;;;;;;;1.77;1.08;;;12.80;99.90;;;12.49;100.00;97396.28;5033637;28;20021;-36
2023/08/08 00:37:42;;;;;;;2.50;1.25;;;12.90;99.90;;;12.46;100.00;97384.06;5037494;28;20043;-37
2023/08/08 00:40:08;;;;;;;1.80;1.20;;;12.90;99.90;;;12.52;100.00;97393.50;5034644;28;20033;-37
2023/08/08 00:42:34;;;;;;;1.30;1.20;;;12.90;99.90;;;12.62;100.00;97391.34;5038587;28;20025;-37
2023/08/08 00:45:03;;;;;;;1.88;1.25;;;13.00;99.90;;;12.63;100.00;97393.03;5037948;28;20028;-37
2023/08/08 00:47:33;;;;;;;2.85;1.30;;;13.00;99.90;;;12.66;100.00;97390.25;5032865;28;20083;-37
2023/08/08 00:50:00;;;;;;;5.60;1.27;;;13.00;99.90;;;12.67;100.00;97394.59;5031819;28;20388;-37
2023/08/08 00:52:26;;;;;;;3.15;1.27;;;13.00;99.90;;;12.68;100.00;97391.88;5037870;28;20048;-37
2023/08/08 00:54:52;;;;;;;1.80;1.10;;;13.10;99.90;;;12.71;100.00;97391.75;5036159;28;20036;-37
2023/08/08 00:57:18;;;;;;;1.92;1.05;;;13.10;99.90;;;12.76;100.00;97388.91;5034966;28;20094;-37
2023/08/08 00:59:44;;;;;;;2.25;1.00;;;13.10;99.90;;;12.74;100.00;97386.34;5036558;28;20029;-36
2023/08/08 01:02:11;;;;;;;2.10;1.25;;;13.10;99.90;;;12.74;100.00;97388.97;5035763;28;20029;-37
2023/08/08 01:04:37;;;;;;;1.73;1.20;;;13.10;99.90;;;12.73;100.00;97379.31;5036396;28;20029;-37
2023/08/08 01:07:17;;;;;;;1.98;1.15;;;13.10;99.90;;;12.74;100.00;97378.41;5036226;28;20029;-37
2023/08/08 01:10:04;;;;;;;5.05;1.40;;;13.10;99.90;;;12.71;100.00;97369.75;5039335;28;20029;-37
2023/08/08 01:12:30;;;;;;;2.45;1.10;;;13.10;99.90;;;12.62;100.00;97373.66;5041492;28;20033;-37
2023/08/08 01:14:56;;;;;;;1.10;0.98;;;13.10;99.90;;;12.66;100.00;97382.31;5041582;28;20183;-37
2023/08/08 01:17:25;;;;;;;1.70;1.17;;;13.10;99.90;;;12.66;100.00;97382.31;5040885;28;20086;-37
2023/08/08 01:19:51;;;;;;;5.60;1.20;;;13.10;99.90;;;12.70;100.00;97376.78;5042437;28;20965;-37
2023/08/08 01:22:30;;;;;;;2.35;1.10;;;13.10;99.90;;;12.69;100.00;97383.03;5039910;28;20056;-37
2023/08/08 01:24:56;;;;;;;2.10;1.20;;;13.10;99.90;;;12.72;100.00;97382.03;5042465;28;20044;-37
2023/08/08 01:27:22;;;;;;;2.08;1.20;;;13.10;99.90;;;12.77;100.00;97380.03;5033541;28;20032;-37
2023/08/08 01:29:48;;;;;;;1.83;1.20;;;13.10;99.90;;;12.75;100.00;97366.84;5041211;28;20025;-37
2023/08/08 01:32:14;;;;;;;2.22;1.13;;;13.20;99.90;;;12.80;100.00;97366.66;5040536;28;20041;-37
2023/08/08 01:34:39;;;;;;;4.53;1.38;;;13.20;99.90;;;12.89;100.00;97378.59;5043723;28;20044;-37
2023/08/08 01:37:31;;;;;;;3.75;1.20;;;13.30;99.90;;;12.90;100.00;97372.38;5044718;28;20501;-37
2023/08/08 01:39:59;;;;;;;2.20;1.17;;;13.20;99.90;;;12.91;100.00;97363.50;5049521;28;20037;-37
2023/08/08 01:42:27;;;;;;;1.00;0.90;;;13.30;99.90;;;12.91;100.00;97367.00;5039448;28;20404;-37
2023/08/08 01:44:55;;;;;;;2.22;1.20;;;13.30;99.90;;;12.92;100.00;97368.75;5038670;28;20084;-37
2023/08/08 01:47:20;;;;;;;2.28;1.35;;;13.30;99.90;;;12.92;100.00;97366.09;5037225;28;20402;-37
2023/08/08 01:49:46;;;;;;;3.33;1.25;;;13.30;99.90;;;12.94;100.00;97353.63;5040486;28;20500;-37
2023/08/08 01:52:12;;;;;;;1.58;1.05;;;13.30;99.90;;;12.95;100.00;97360.63;5041393;28;20350;-37
2023/08/08 01:54:38;;;;;;;1.08;0.90;;;13.30;99.90;;;12.96;100.00;97357.06;5037495;28;20048;-37
2023/08/08 01:57:04;;;;;;;2.20;0.98;;;13.30;99.90;;;12.97;100.00;97363.22;5039639;28;20041;-37
2023/08/08 01:59:30;;;;;;;4.40;1.30;;;13.40;99.90;;;12.99;100.00;97361.34;5038667;28;20112;-37
2023/08/08 02:01:55;;;;;;;3.17;1.38;;;13.30;99.90;;;12.98;100.00;97357.84;5040214;28;20039;-37
2023/08/08 02:04:21;;;;;;;4.50;1.30;;;13.40;99.90;;;13.00;100.00;97365.72;5039126;28;20099;-37
2023/08/08 02:06:47;;;;;;;1.50;1.20;;;13.30;99.90;;;12.97;100.00;97356.16;5039364;28;20435;-37
2023/08/08 02:09:14;;;;;;;1.90;1.13;;;13.40;99.90;;;13.01;100.00;97355.97;5038464;28;20043;-37
2023/08/08 02:11:40;;;;;;;2.58;1.20;;;13.40;99.90;;;12.99;100.00;97353.41;5040833;28;20048;-37
2023/08/08 02:14:06;;;;;;;2.78;1.20;;;13.40;99.90;;;13.01;100.00;97350.69;5039286;28;20494;-37
2023/08/08 02:16:32;;;;;;;2.15;1.20;;;13.40;99.90;;;13.00;100.00;97352.50;5038134;28;20064;-37
2023/08/08 02:18:57;;;;;;;2.00;1.10;;;13.40;99.90;;;12.95;100.00;97336.81;5040604;28;20071;-37
2023/08/08 02:21:23;;;;;;;2.03;1.00;;;13.40;99.90;;;12.99;100.00;97353.41;5040345;28;20492;-37
2023/08/08 02:23:49;;;;;;;1.63;1.20;;;13.40;99.90;;;12.97;100.00;97348.22;5024339;28;20056;-37
2023/08/08 02:26:14;;;;;;;1.90;1.27;;;13.40;99.90;;;12.93;100.00;97345.75;5035592;28;20040;-37
2023/08/08 02:28:41;;;;;;;2.58;1.20;;;13.30;99.90;;;12.89;100.00;97341.56;5033761;28;20021;-37
2023/08/08 02:31:06;;;;;;;2.28;1.33;;;13.20;99.90;;;12.71;100.00;97341.47;5037668;28;20037;-37
2023/08/08 02:33:32;;;;;;;1.63;1.30;;;13.10;99.90;;;12.64;100.00;97345.34;5035467;28;20390;-37
2023/08/08 02:35:58;;;;;;;2.30;1.10;;;13.00;99.90;;;12.54;100.00;97351.97;5040674;28;20447;-37
2023/08/08 02:38:23;;;;;;;3.67;1.27;;;12.90;99.90;;;12.44;100.00;97348.06;5037192;28;20064;-37
2023/08/08 02:40:49;;;;;;;1.85;1.15;;;12.80;99.90;;;12.15;100.00;97316.69;5035377;28;20182;-37
2023/08/08 02:43:16;;;;;;;2.40;1.23;;;12.80;99.90;;;12.28;100.00;97351.38;5036445;28;20052;-37
2023/08/08 02:45:42;;;;;;;1.85;1.20;;;12.60;99.90;;;12.22;100.00;97351.63;5036082;28;20028;-37
2023/08/08 02:48:08;;;;;;;2.15;1.30;;;12.60;99.90;;;12.17;100.00;97349.19;5041021;28;20029;-37
2023/08/08 02:50:33;;;;;;;4.50;1.17;;;12.50;99.90;;;12.09;100.00;97342.53;5036748;28;20060;-37
2023/08/08 02:52:59;;;;;;;2.13;1.20;;;12.50;99.90;;;11.95;100.00;97338.72;5041933;28;20027;-37
2023/08/08 02:55:25;;;;;;;2.33;1.35;;;12.40;99.90;;;11.96;100.00;97348.34;5035038;28;20051;-37
2023/08/08 02:57:50;;;;;;;2.33;1.27;;;12.40;99.90;;;11.85;100.00;97322.34;5040335;28;20044;-37
2023/08/08 03:00:17;;;;;;;2.03;1.20;;;12.30;99.90;;;11.89;100.00;97333.66;5033464;28;20478;-37
2023/08/08 03:02:42;;;;;;;4.45;1.45;;;12.30;99.90;;;11.84;100.00;97341.78;5039905;28;20091;-37
2023/08/08 03:05:08;;;;;;;3.20;1.42;;;12.20;99.90;;;11.80;100.00;97345.47;5038180;28;20469;-37
2023/08/08 03:07:34;;;;;;;2.95;1.00;;;12.20;99.90;;;11.77;100.00;97342.09;5038060;28;20409;-37
2023/08/08 03:10:00;;;;;;;2.88;1.33;;;12.20;99.90;;;11.75;100.00;97346.59;5041508;28;20025;-37
2023/08/08 03:12:26;;;;;;;1.95;1.20;;;12.20;99.90;;;11.74;100.00;97334.31;5038533;28;20091;-37
2023/08/08 03:14:51;;;;;;;2.00;1.05;;;12.10;99.90;;;11.79;100.00;97337.59;5038455;28;20047;-37
2023/08/08 03:17:17;;;;;;;2.10;1.30;;;12.20;99.90;;;11.78;100.00;97335.91;5038244;28;20045;-37
2023/08/08 03:19:43;;;;;;;2.65;1.20;;;12.20;99.90;;;11.76;100.00;97337.75;5040112;28;20032;-37
2023/08/08 03:22:09;;;;;;;3.42;1.40;;;12.20;99.90;;;11.75;100.00;97343.94;5039666;28;20071;-37
2023/08/08 03:24:35;;;;;;;1.73;1.17;;;12.10;99.90;;;11.65;100.00;97333.78;5037216;28;20473;-37
2023/08/08 03:27:00;;;;;;;2.53;1.30;;;12.10;99.90;;;11.65;100.00;97336.41;5039633;28;20032;-37
2023/08/08 03:29:26;;;;;;;2.05;1.50;;;12.10;99.90;;;11.60;100.00;97332.25;5036958;28;20497;-37
2023/08/08 03:31:52;;;;;;;1.77;1.23;;;12.00;99.90;;;11.60;100.00;97326.97;5039055;28;20033;-37
2023/08/08 03:34:17;;;;;;;3.97;1.42;;;12.00;99.90;;;11.67;100.00;97343.44;5035451;28;20032;-37
2023/08/08 03:36:43;;;;;;;2.60;1.35;;;12.10;99.90;;;11.72;100.00;97347.59;5035912;28;20036;-37
2023/08/08 03:39:09;;;;;;;3.33;1.30;;;12.10;99.90;;;11.77;100.00;97336.81;5034872;28;20428;-37
2023/08/08 03:41:36;;;;;;;3.15;1.15;;;12.20;99.90;;;11.83;100.00;97340.06;5038130;28;20636;-37
2023/08/08 03:44:02;;;;;;;2.83;1.25;;;12.30;99.90;;;11.91;100.00;97342.41;5035855;28;20056;-37
2023/08/08 03:46:28;;;;;;;1.77;1.27;;;12.30;99.90;;;12.00;100.00;97342.00;5035297;28;20037;-37
2023/08/08 03:48:54;;;;;;;2.28;1.30;;;12.40;99.90;;;12.06;100.00;97340.91;5037532;28;20033;-37
2023/08/08 03:51:20;;;;;;;2.80;0.93;;;12.50;99.90;;;12.14;100.00;97341.41;5039463;28;20034;-37
2023/08/08 03:53:46;;;;;;;1.58;1.10;;;12.50;99.90;;;12.21;100.00;97339.34;5035535;28;20029;-37
2023/08/08 03:56:11;;;;;;;2.42;1.30;;;12.60;99.90;;;12.19;100.00;97330.63;5037026;28;20045;-37
2023/08/08 03:58:38;;;;;;;3.55;1.60;;;12.70;99.90;;;12.34;100.00;97340.50;5035190;28;20265;-37
2023/08/08 04:01:04;;;;;;;1.98;1.35;;;12.70;99.90;;;12.43;100.00;97343.66;5033982;28;20029;-37
2023/08/08 04:03:29;;;;;;;1.88;1.20;;;12.80;99.90;;;12.45;100.00;97336.53;5033082;28;20035;-37
2023/08/08 04:05:55;;;;;;;2.28;1.42;;;12.80;99.90;;;12.47;100.00;97342.59;5037624;28;20607;-37
2023/08/08 04:08:21;;;;;;;2.97;1.15;;;12.90;99.90;;;12.43;100.00;97338.38;5040228;28;20029;-37
2023/08/08 04:10:47;;;;;;;5.20;1.50;;;12.90;99.90;;;12.52;100.00;97332.66;5035447;28;20091;-37
2023/08/08 04:13:13;;;;;;;2.78;1.10;;;12.90;99.90;;;12.52;100.00;97349.38;5036592;28;20071;-37
2023/08/08 04:15:38;;;;;;;1.67;1.15;;;13.00;99.90;;;12.54;100.00;97339.63;5034067;28;20033;-37
2023/08/08 04:18:06;;;;;;;3.30;1.67;;;12.90;99.90;;;12.55;100.00;97343.97;5040684;28;20052;-37
2023/08/08 04:20:33;;;;;;;2.80;1.42;;;13.00;99.90;;;12.56;100.00;97340.41;5037734;28;20041;-37
2023/08/08 04:22:59;;;;;;;4.78;1.48;;;12.90;99.90;;;12.55;100.00;97345.75;5037423;28;20028;-37
2023/08/08 04:25:26;;;;;;;2.25;1.50;;;12.90;99.90;;;12.51;100.00;97342.41;5033445;28;20026;-37
2023/08/08 04:27:52;;;;;;;2.17;1.10;;;12.90;99.90;;;12.49;100.00;97340.75;5033765;28;20086;-37
2023/08/08 04:30:18;;;;;;;2.92;1.23;;;12.90;99.90;;;12.55;100.00;97343.13;5034980;28;20037;-37
2023/08/08 04:32:43;;;;;;;1.75;1.13;;;12.90;99.90;;;12.65;100.00;97336.47;5034945;28;20072;-37
2023/08/08 04:35:09;;;;;;;1.48;1.25;;;12.90;99.90;;;12.69;100.00;97345.13;5035896;28;20033;-37
2023/08/08 04:37:35;;;;;;;1.95;1.40;;;13.10;99.90;;;12.71;100.00;97345.91;5035237;28;20037;-37
2023/08/08 04:40:00;;;;;;;2.08;0.95;;;13.00;99.90;;;12.73;100.00;97346.72;5031364;28;20354;-37
2023/08/08 04:42:26;;;;;;;1.73;1.20;;;13.10;99.90;;;12.72;100.00;97347.63;5036055;28;20045;-37
2023/08/08 04:44:52;;;;;;;4.10;1.20;;;13.10;99.90;;;12.79;100.00;97354.34;5038961;28;20021;-36
2023/08/08 04:47:17;;;;;;;2.83;1.10;;;13.10;99.90;;;12.84;100.00;97362.09;5031215;28;20563;-36
2023/08/08 04:49:43;;;;;;;2.47;1.55;;;13.20;99.90;;;12.77;100.00;97346.47;5034394;28;20021;-37
2023/08/08 04:52:09;;;;;;;2.15;1.45;;;13.20;99.90;;;12.86;100.00;97365.50;5037975;28;20501;-36
2023/08/08 04:54:34;;;;;;;5.18;1.40;;;13.20;99.90;;;12.83;100.00;97366.53;5033705;28;20066;-36
2023/08/08 04:57:00;;;;;;;2.20;1.40;;;13.20;99.90;;;12.81;100.00;97363.06;5037289;28;20017;-37
2023/08/08 04:59:26;;;;;;;1.20;1.05;;;13.20;99.90;;;12.77;100.00;97353.56;5038998;28;20052;-37
2023/08/08 05:01:51;;;;;;;2.50;1.45;;;13.10;99.90;;;12.73;100.00;97363.44;5035251;28;20279;-37
2023/08/08 05:04:18;;;;;;;2.50;1.50;;;13.10;99.90;;;12.70;100.00;97354.78;5038973;28;20518;-37
2023/08/08 05:06:43;;;;;;;2.97;1.40;;;13.10;99.90;;;12.71;100.00;97364.44;5036354;28;20350;-37
2023/08/08 05:09:09;;;;;;;2.17;1.10;;;13.00;99.90;;;12.70;100.00;97363.56;5035943;28;20040;-37
2023/08/08 05:11:36;;;;;;;2.58;1.48;;;13.10;99.90;;;12.71;100.00;97359.16;5035010;28;20037;-37
2023/08/08 05:14:02;;;;;;;1.55;1.10;;;13.10;99.90;;;12.70;100.00;97349.47;5039657;28;20055;-37
2023/08/08 05:16:28;;;;;;;1.30;1.05;;;13.10;99.90;;;12.71;100.00;97335.34;5037707;28;20489;-37
2023/08/08 05:18:53;;;;;;;2.13;1.17;;;13.00;99.90;;;12.72;100.00;97340.56;5038705;28;20319;-37
2023/08/08 05:21:20;;;;;;;3.03;1.13;;;13.10;99.90;;;12.80;100.00;97349.00;5037634;28;20040;-37
2023/08/08 05:23:46;;;;;;;1.42;1.13;;;13.20;99.90;;;12.90;100.00;97340.59;5034480;28;20085;-37
2023/08/08 05:26:13;;;;;;;2.05;1.08;;;13.20;99.90;;;12.93;100.00;97332.53;5033233;28;20025;-37
2023/08/08 05:28:39;;;;;;;3.42;1.30;;;13.30;99.90;;;13.09;100.00;97341.44;5035550;28;20033;-38
2023/08/08 05:31:04;;;;;;;1.92;1.27;;;13.40;99.90;;;13.13;100.00;97326.28;5034294;28;20037;-37
2023/08/08 05:33:30;;;;;;;1.63;1.20;;;13.50;99.90;;;13.34;100.00;97332.34;5035148;28;20083;-37
2023/08/08 05:35:56;;;;;;;2.05;1.13;;;13.60;99.90;;;13.45;100.00;97332.69;5036165;28;20037;-37
2023/08/08 05:38:21;;;;;;;2.05;1.30;;;13.70;99.90;;;13.49;100.00;97336.03;5033858;28;20180;-37
2023/08/08 05:40:47;;;;;;;2.70;1.10;;;13.80;99.90;;;13.55;100.00;97343.69;5031590;28;20404;-37
2023/08/08 05:43:16;;;;;;;2.15;1.10;;;13.90;99.90;;;13.62;100.00;97346.88;5032692;28;20082;-37
2023/08/08 05:45:43;;;;;;;2.38;0.98;;;14.00;99.90;;;13.68;100.00;97350.09;5033307;28;20493;-37
2023/08/08 05:48:11;;;;;;;2.45;1.17;;;14.00;99.90;;;13.72;100.00;97350.78;5035000;28;20061;-37
2023/08/08 05:50:40;;;;;;;4.40;1.10;;;14.10;99.90;;;13.79;100.00;97354.00;5034296;28;20041;-37
2023/08/08 05:53:06;;;;;;;2.40;1.30;;;14.10;99.90;;;13.68;100.00;97328.03;5035472;28;20029;-37
2023/08/08 05:55:32;;;;;;;3.03;1.50;;;14.10;99.90;;;13.87;100.00;97357.97;5040001;28;20040;-37
2023/08/08 05:57:58;;;;;;;5.20;1.60;;;14.20;99.90;;;13.78;100.00;97325.75;5037210;28;20227;-37
2023/08/08 06:00:24;;;;;;;1.67;1.08;;;14.20;99.90;;;13.98;100.00;97357.44;5036280;28;20040;-37
2023/08/08 06:02:50;;;;;;;4.55;1.30;;;14.30;99.90;;;14.00;100.00;97354.66;5037733;28;20017;-37
2023/08/08 06:05:17;;;;;;;1.83;1.13;;;14.40;99.90;;;14.08;100.00;97357.78;5040124;28;20021;-37
2023/08/08 06:07:43;;;;;;;2.20;1.08;;;14.40;99.90;;;14.16;100.00;97360.03;5040979;28;20025;-37
2023/08/08 06:10:10;;;;;;;2.20;1.15;;;14.50;99.90;;;14.27;100.00;97363.84;5037999;28;20038;-37
2023/08/08 06:12:36;;;;;;;4.07;1.50;;;14.60;99.90;;;14.29;100.00;97347.88;5036398;28;20098;-37
2023/08/08 06:15:03;;;;;;;2.38;1.20;;;14.70;99.90;;;14.52;100.00;97365.22;5038933;28;20029;-37
2023/08/08 06:17:29;;;;;;;3.33;1.30;;;14.80;99.90;;;14.65;100.00;97357.50;5039634;28;20226;-37
2023/08/08 06:19:56;;;;;;;3.95;1.45;;;15.00;99.90;;;14.70;100.00;97351.00;5041264;28;20163;-37
2023/08/08 06:22:23;;;;;;;3.17;1.30;;;15.10;99.90;;;14.84;100.00;97344.06;5041712;28;20053;-37
2023/08/08 06:24:48;;;;;;;2.95;1.08;;;15.20;99.90;;;15.03;100.00;97352.72;5038078;28;20024;-37
2023/08/08 06:27:14;;;;;;;5.05;1.33;;;15.30;99.90;;;15.19;100.00;97358.03;5033446;28;20023;-37
2023/08/08 06:29:40;;;;;;;5.20;1.20;;;15.50;99.90;;;15.31;100.00;97355.63;5030875;28;20086;-37
2023/08/08 06:32:06;;;;;;;3.67;1.48;;;15.60;99.90;;;15.51;100.00;97359.81;5036549;28;20120;-37
2023/08/08 06:34:32;;;;;;;2.00;1.33;;;15.70;99.90;;;15.62;100.00;97360.03;5033186;28;20346;-37
2023/08/08 06:36:58;;;;;;;2.60;1.30;;;15.90;99.90;;;15.67;100.00;97360.63;5035161;28;20035;-37
2023/08/08 06:39:23;;;;;;;2.28;1.15;;;16.00;99.90;;;15.80;100.00;97360.81;5033033;28;20052;-37
2023/08/08 06:41:49;;;;;;;1.70;1.27;;;16.10;99.90;;;15.87;100.00;97362.16;5027195;28;20031;-37
2023/08/08 06:44:15;;;;;;;3.35;1.40;;;16.10;99.90;;;15.91;100.00;97357.53;5033142;28;20037;-37
2023/08/08 06:46:40;;;;;;;2.70;1.30;;;16.20;99.90;;;15.93;100.00;97360.94;5035614;28;20029;-37
2023/08/08 06:49:07;;;;;;;1.88;1.10;;;16.20;99.90;;;15.97;100.00;97363.34;5036871;28;20103;-37
2023/08/08 06:51:33;;;;;;;2.33;1.20;;;16.20;99.90;;;16.03;100.00;97359.44;5034716;28;20374;-37
2023/08/08 06:53:58;;;;;;;3.00;1.25;;;16.30;99.90;;;16.02;100.00;97350.63;5025466;28;20146;-37
2023/08/08 06:56:26;;;;;;;2.25;1.35;;;16.40;99.90;;;16.25;99.53;97363.47;5034041;28;20029;-37
2023/08/08 06:58:52;;;;;;;5.10;1.45;;;16.50;99.90;;;16.34;98.94;97360.25;5033679;28;20029;-37
2023/08/08 07:01:18;;;;;;;3.20;1.13;;;16.60;99.90;;;16.46;98.57;97364.84;5024453;28;20033;-37
2023/08/08 07:03:44;;;;;;;3.63;1.08;;;16.70;99.90;;;16.55;94.69;97358.09;5033981;28;20029;-36
2023/08/08 07:06:10;;;;;;;1.90;1.05;;;16.80;99.90;;;16.70;96.48;97357.13;5036827;28;20175;-37
2023/08/08 07:08:39;;;;;;;1.42;1.00;;;16.90;99.90;;;16.87;95.75;97356.13;5036675;28;20025;-37
2023/08/08 07:11:05;;;;;;;3.75;1.30;;;17.00;99.90;;;17.10;97.42;97362.66;5038936;28;20079;-36
2023/08/08 07:13:31;;;;;;;2.63;0.90;;;17.10;99.90;;;17.21;90.94;97359.31;5038840;28;20168;-36
2023/08/08 07:15:57;;;;;;;2.35;0.90;;;17.30;99.90;;;17.17;92.36;97347.09;5036384;28;20108;-35
2023/08/08 07:18:23;;;;;;;1.48;1.02;;;17.30;99.90;;;17.30;89.43;97363.16;5039370;28;20036;-37
2023/08/08 07:20:49;;;;;;;2.05;1.25;;;17.40;99.90;;;17.35;89.80;97347.72;5034909;28;20061;-37
2023/08/08 07:23:16;;;;;;;2.55;1.42;;;17.50;99.90;;;17.55;89.32;97357.94;5040191;28;20029;-37
2023/08/08 07:25:42;;;;;;;2.25;1.08;;;17.60;99.90;;;17.71;88.90;97352.47;5035901;28;20477;-37
2023/08/08 07:28:08;;;;;;;2.53;1.15;;;17.70;99.90;;;17.82;90.22;97351.75;5036838;28;20033;-36
2023/08/08 07:30:35;;;;;;;2.22;1.20;;;17.80;99.90;;;17.77;84.64;97343.19;5035600;28;20039;-37
2023/08/08 07:33:00;;;;;;;1.63;1.10;;;17.90;99.90;;;17.95;85.00;97356.28;5036629;28;20115;-36
2023/08/08 07:35:27;;;;;;;2.30;1.20;;;17.90;99.90;;;18.03;81.96;97351.28;5037338;28;20111;-39
2023/08/08 07:37:53;;;;;;;2.53;1.20;;;18.00;99.90;;;18.17;80.28;97351.19;5033636;28;20586;-37
2023/08/08 07:40:21;;;;;;;1.63;1.00;;;18.20;99.90;;;18.25;77.02;97345.31;5033896;28;20039;-37
2023/08/08 07:42:48;;;;;;;3.03;1.00;;;18.30;99.90;;;18.34;76.76;97352.72;5035853;28;20028;-36
2023/08/08 07:45:15;;;;;;;2.58;0.90;;;18.40;99.90;;;18.57;77.17;97348.41;5036286;28;20104;-37
2023/08/08 07:47:41;;;;;;;2.40;1.20;;;18.70;99.90;;;18.74;75.49;97357.06;5037617;28;20241;-37
2023/08/08 07:50:08;;;;;;;1.83;1.20;;;18.90;99.90;;;18.74;70.02;97351.72;5035767;28;20037;-37
2023/08/08 07:52:35;;;;;;;1.98;1.15;;;19.10;99.90;;;18.96;68.78;97351.06;5037140;28;20452;-37
2023/08/08 07:55:01;;;;;;;3.17;1.17;;;19.20;99.90;;;19.14;66.46;97352.41;5035134;28;20025;-37
2023/08/08 07:57:27;;;;;;;3.78;1.10;;;19.40;99.90;;;19.13;67.25;97350.72;5039237;28;20060;-37
2023/08/08 07:59:52;;;;;;;1.50;0.98;;;19.50;99.90;;;19.32;66.27;97346.72;5036479;28;20039;-37
2023/08/08 08:02:18;;;;;;;3.55;1.10;;;19.60;99.90;;;19.15;61.55;97338.09;5036512;28;20516;-37
2023/08/08 08:04:44;;;;;;;1.73;1.02;;;19.50;99.90;;;19.04;61.88;97338.00;5037125;28;20032;-38
2023/08/08 08:07:10;;;;;;;1.70;1.00;;;19.50;99.90;;;19.17;63.66;97343.34;5039771;28;20025;-37
2023/08/08 08:09:35;;;;;;;1.80;1.00;;;19.40;99.90;;;19.13;60.74;97350.72;5036824;28;20099;-37
2023/08/08 08:12:01;;;;;;;2.45;1.02;;;19.50;99.90;;;18.97;61.50;97339.41;5037841;28;20040;-37
2023/08/08 08:14:27;;;;;;;2.95;1.05;;;19.40;99.90;;;19.09;60.95;97341.19;5040316;28;20402;-38
2023/08/08 08:16:53;;;;;;;2.08;1.10;;;19.50;99.90;;;19.16;62.18;97347.81;5035271;28;20045;-37
2023/08/08 08:19:20;;;;;;;3.58;1.30;;;19.50;99.90;;;18.96;67.31;97345.75;5040975;28;20028;-37
2023/08/08 08:21:46;;;;;;;2.20;0.98;;;19.40;99.90;;;18.82;64.81;97336.03;5034512;28;20148;-37
2023/08/08 08:24:11;;;;;;;2.10;0.95;;;19.30;99.90;;;18.79;64.38;97342.44;5038880;28;20029;-36
2023/08/08 08:26:37;;;;;;;1.98;1.15;;;19.30;99.90;;;18.70;65.71;97332.41;5037969;28;20025;-36
2023/08/08 08:29:03;;;;;;;2.08;1.00;;;19.20;99.90;;;18.88;66.50;97346.28;5036521;28;20059;-37
2023/08/08 08:31:28;;;;;;;2.40;1.27;;;19.20;99.90;;;18.99;71.45;97342.84;5036736;28;20036;-36
2023/08/08 08:33:57;;;;;;;1.90;1.08;;;19.30;99.90;;;18.99;74.10;97327.66;5035649;28;20041;-37
2023/08/08 08:36:23;;;;;;;2.10;1.13;;;19.50;99.90;;;19.10;66.38;97348.28;5038395;28;20059;-39
2023/08/08 08:38:49;;;;;;;1.75;1.17;;;19.50;99.90;;;19.06;65.78;97341.44;5036726;28;20033;-37
2023/08/08 08:41:19;;;;;;;4.45;1.20;;;19.50;99.90;;;19.16;65.16;97341.63;5039555;28;20527;-38
2023/08/08 08:43:45;;;;;;;2.53;1.08;;;19.40;99.90;;;19.24;61.43;97348.13;5053064;28;20027;-37
2023/08/08 08:46:13;;;;;;;4.43;1.35;;;19.60;99.90;;;19.20;63.11;97335.94;5036326;28;20397;-37
2023/08/08 08:48:38;;;;;;;1.58;0.80;;;19.60;99.90;;;19.32;65.67;97334.19;5036891;28;20025;-37
2023/08/08 08:51:04;;;;;;;1.95;1.10;;;19.60;99.90;;;19.41;64.80;97329.97;5038043;28;20515;-37
2023/08/08 08:53:30;;;;;;;1.70;1.10;;;19.70;99.90;;;19.45;64.11;97331.44;5039959;28;20025;-37
2023/08/08 08:56:00;;;;;;;2.25;0.98;;;19.70;99.90;;;19.39;64.83;97331.91;5035168;28;20025;-37
2023/08/08 08:58:27;;;;;;;2.70;0.95;;;19.60;99.90;;;19.29;66.10;97333.56;5031503;28;20032;-36
2023/08/08 09:00:54;;;;;;;1.52;1.00;;;19.60;99.90;;;19.34;64.70;97331.41;5029537;28;20033;-37
2023/08/08 09:03:20;;;;;;;2.08;1.00;;;19.60;99.90;;;19.47;65.00;97332.22;5038591;28;20021;-37
2023/08/08 09:05:46;;;;;;;4.57;1.15;;;19.70;99.90;;;19.56;61.95;97322.63;5037602;28;20440;-37
2023/08/08 09:08:12;;;;;;;1.02;0.80;;;19.80;99.90;;;19.80;62.62;97322.66;5037221;28;20029;-38
2023/08/08 09:10:38;;;;;;;2.28;1.20;;;20.10;99.90;;;20.09;58.81;97322.25;5038770;28;20048;-37
2023/08/08 09:13:03;;;;;;;2.90;1.17;;;20.30;99.90;;;20.24;57.76;97317.53;5039086;28;20063;-37
2023/08/08 09:15:34;;;;;;;2.30;1.02;;;20.50;99.90;;;20.44;60.79;97315.97;5034511;28;20108;-37
2023/08/08 09:18:00;;;;;;;1.95;1.00;;;20.60;99.90;;;20.55;56.85;97324.88;5036938;28;20318;-37
2023/08/08 09:20:30;;;;;;;1.98;0.85;;;20.80;99.90;;;20.72;54.80;97315.53;5038191;28;20527;-38
2023/08/08 09:22:56;;;;;;;2.95;1.15;;;21.00;99.90;;;20.98;54.39;97317.97;5037650;28;20225;-37
2023/08/08 09:25:23;;;;;;;1.73;1.20;;;21.20;99.90;;;20.96;52.16;97311.84;5036344;28;20031;-38
2023/08/08 09:27:53;;;;;;;4.00;1.05;;;21.30;99.90;;;20.94;51.20;97311.13;5036055;28;20028;-37
2023/08/08 09:30:18;;;;;;;4.13;1.33;;;21.30;99.80;;;20.88;51.35;97315.16;5037459;28;20025;-37
2023/08/08 09:32:45;;;;;;;2.83;1.23;;;21.30;99.60;;;20.98;50.47;97318.81;5038917;28;20065;-37
2023/08/08 09:35:11;;;;;;;2.58;0.88;;;21.30;99.20;;;21.03;48.73;97307.72;5039864;28;20025;-37
2023/08/08 09:37:38;;;;;;;2.38;1.20;;;21.30;99.00;;;20.85;50.42;97314.56;5038327;28;20425;-38
2023/08/08 09:40:07;;;;;;;2.67;0.93;;;21.30;98.80;;;20.92;50.49;97289.81;5037040;28;20116;-37
2023/08/08 09:42:33;;;;;;;2.92;1.02;;;21.40;99.20;;;20.90;47.88;97302.47;5040067;28;20037;-38
2023/08/08 09:44:59;;;;;;;2.95;0.90;;;21.30;97.40;;;20.89;49.04;97297.25;5037337;28;20477;-37
2023/08/08 09:47:30;;;;;;;1.33;0.90;;;21.30;98.10;;;20.65;48.98;97308.94;5039039;28;20116;-37
2023/08/08 09:50:00;;;;;;;3.08;1.08;;;21.10;97.80;;;20.57;50.29;97306.84;5038597;28;20295;-37
2023/08/08 09:52:28;;;;;;;4.00;1.20;;;21.00;98.90;;;20.46;48.52;97295.28;5040941;28;20059;-38
2023/08/08 09:54:54;;;;;;;1.38;0.98;;;20.80;97.60;;;20.46;49.92;97297.94;5035970;28;20067;-37
2023/08/08 09:57:22;;;;;;;2.70;0.80;;;20.80;98.50;;;20.63;49.37;97302.03;5041243;28;20033;-37
2023/08/08 09:59:49;;;;;;;3.60;1.02;;;20.80;97.80;;;20.45;50.59;97302.47;5040774;28;20032;-38
2023/08/08 10:02:15;;;;;;;1.60;1.02;;;20.80;98.50;;;20.33;51.08;97298.94;5034636;28;20151;-37
2023/08/08 10:04:48;;;;;;;2.40;1.20;;;20.60;98.70;;;20.09;54.52;97282.94;5039967;28;20123;-37
2023/08/08 10:07:14;;;;;;;1.98;1.00;;;20.50;99.30;;;20.17;51.32;97298.41;5040367;28;20040;-37
2023/08/08 10:09:41;;;;;;;1.52;0.93;;;20.40;98.90;;;20.19;50.36;97296.50;5039075;28;20063;-37
2023/08/08 10:12:07;;;;;;;4.88;1.02;;;20.50;98.70;;;20.12;47.21;97295.25;5040552;28;20321;-38